Time;durP1;ratioP1;P1;durP2;ratioP2;P2;SDS_P1;SDS_P2;PMS_P1;PMS_P2;Temp;Humidity;BMP_temperature;BMP_pressure;BME280_temperature;BME280_humidity;BME280_pressure;Samples;Min_cycle;Max_cycle;Signal;HPM_P1;HPM_P2
2023/04/12 00:00:10;;;;;;;1.50;1.20;;;10.40;98.20;;;;;;4989291;28;20461;-76
2023/04/12 00:02:40;;;;;;;1.83;1.73;;;10.40;98.20;;;;;;4971045;28;20532;-76
2023/04/12 00:05:08;;;;;;;1.50;1.10;;;10.30;98.20;;;;;;4982852;28;20523;-76
2023/04/12 00:07:37;;;;;;;1.50;1.10;;;10.30;98.20;;;;;;4984545;28;20998;-76
2023/04/12 00:10:05;;;;;;;1.50;1.20;;;10.30;98.20;;;;;;4980222;28;20488;-76
2023/04/12 00:12:31;;;;;;;1.47;1.00;;;10.20;98.20;;;;;;4980573;28;20552;-76
2023/04/12 00:15:00;;;;;;;1.50;1.10;;;10.20;98.20;;;;;;4982960;28;20898;-76
2023/04/12 00:17:27;;;;;;;1.50;1.20;;;10.10;98.20;;;;;;4985111;28;20499;-76
2023/04/12 00:19:56;;;;;;;1.50;1.17;;;10.10;98.20;;;;;;4990263;28;20453;-76
2023/04/12 00:22:23;;;;;;;1.50;1.00;;;10.10;98.20;;;;;;4983850;28;20577;-77
2023/04/12 00:24:50;;;;;;;1.50;1.20;;;10.10;98.20;;;;;;4982157;28;20875;-76
2023/04/12 00:27:17;;;;;;;1.50;1.10;;;10.00;98.20;;;;;;4983862;28;21010;-76
2023/04/12 00:29:44;;;;;;;1.50;1.10;;;10.00;98.20;;;;;;4985041;28;21035;-76
2023/04/12 00:32:10;;;;;;;1.47;1.13;;;10.00;98.20;;;;;;4980254;28;20596;-76
2023/04/12 00:34:37;;;;;;;1.50;1.10;;;10.00;98.20;;;;;;4987930;28;20486;-76
2023/04/12 00:37:05;;;;;;;1.50;1.20;;;10.00;98.20;;;;;;4988306;28;20476;-76
2023/04/12 00:39:32;;;;;;;1.47;1.10;;;10.00;98.20;;;;;;4991523;28;20475;-76
2023/04/12 00:42:03;;;;;;;1.43;1.10;;;9.90;98.20;;;;;;4965153;28;20573;-76
2023/04/12 00:44:30;;;;;;;1.47;1.10;;;9.90;98.20;;;;;;4983163;28;20493;-76
2023/04/12 00:46:58;;;;;;;1.47;1.10;;;9.90;98.20;;;;;;4976378;28;21148;-76
2023/04/12 00:49:29;;;;;;;1.50;1.10;;;9.90;98.20;;;;;;4988398;28;20461;-76
2023/04/12 00:52:03;;;;;;;1.50;1.10;;;9.80;98.20;;;;;;4963156;28;21004;-75
2023/04/12 00:54:32;;;;;;;1.50;1.20;;;9.80;98.20;;;;;;4983669;28;20489;-76
2023/04/12 00:56:59;;;;;;;1.43;1.10;;;9.80;98.20;;;;;;4967177;28;20584;-76
2023/04/12 00:59:26;;;;;;;1.50;1.20;;;9.80;98.20;;;;;;4982538;28;20469;-76
2023/04/12 01:01:55;;;;;;;1.50;1.10;;;9.80;98.20;;;;;;4974405;28;21022;-76
2023/04/12 01:04:25;;;;;;;1.50;1.20;;;9.80;98.20;;;;;;4987094;28;20492;-76
2023/04/12 01:07:05;;;;;;;1.50;1.10;;;9.70;98.20;;;;;;4980554;28;20485;-76
2023/04/12 01:09:42;;;;;;;1.50;1.10;;;9.70;98.20;;;;;;4992596;28;20460;-76
2023/04/12 01:12:16;;;;;;;1.50;1.10;;;9.70;98.20;;;;;;4974982;28;20476;-76
2023/04/12 01:14:50;;;;;;;1.50;1.10;;;9.60;98.20;;;;;;4981196;28;20496;-76
2023/04/12 01:17:23;;;;;;;1.50;1.10;;;9.60;98.20;;;;;;4976470;28;20995;-75
2023/04/12 01:19:57;;;;;;;1.50;1.20;;;9.60;98.20;;;;;;4985249;28;21111;-76
2023/04/12 01:22:38;;;;;;;1.50;1.10;;;9.50;98.20;;;;;;4971380;28;20576;-76
2023/04/12 01:25:22;;;;;;;1.50;1.20;;;9.50;98.20;;;;;;4977246;28;20863;-76
2023/04/12 01:27:54;;;;;;;1.50;1.10;;;9.50;98.20;;;;;;4978093;28;20484;-76
2023/04/12 01:30:22;;;;;;;1.50;1.17;;;9.50;98.20;;;;;;4982075;28;20461;-76
2023/04/12 01:32:51;;;;;;;1.50;1.10;;;9.50;98.20;;;;;;4982456;28;21007;-76
2023/04/12 01:35:20;;;;;;;1.50;1.20;;;9.40;98.20;;;;;;4988029;28;20481;-76
2023/04/12 01:37:47;;;;;;;1.50;1.20;;;9.40;98.20;;;;;;4982803;28;20539;-76
2023/04/12 01:40:15;;;;;;;1.50;1.10;;;9.40;98.20;;;;;;4984564;28;20461;-76
2023/04/12 01:42:42;;;;;;;1.50;1.20;;;9.40;98.20;;;;;;4979452;28;20473;-77
2023/04/12 01:45:11;;;;;;;1.50;1.20;;;9.40;98.20;;;;;;4983128;28;20851;-76
2023/04/12 01:47:39;;;;;;;1.50;1.10;;;9.30;98.20;;;;;;4980567;28;20484;-76
2023/04/12 01:50:16;;;;;;;1.50;1.10;;;9.30;98.20;;;;;;4981271;28;20992;-76
2023/04/12 01:52:49;;;;;;;1.50;1.10;;;9.30;98.20;;;;;;4987812;28;20575;-77
2023/04/12 01:55:19;;;;;;;1.50;1.20;;;9.20;98.20;;;;;;4991380;28;20504;-76
2023/04/12 01:57:48;;;;;;;1.50;1.10;;;9.30;98.20;;;;;;4975572;28;20479;-76
2023/04/12 02:00:18;;;;;;;1.50;1.10;;;9.30;98.20;;;;;;4983533;28;20558;-76
2023/04/12 02:02:44;;;;;;;1.50;1.20;;;9.30;98.20;;;;;;4974538;28;20530;-76
2023/04/12 02:05:12;;;;;;;1.50;1.20;;;9.30;98.20;;;;;;4983344;28;20483;-76
2023/04/12 02:07:39;;;;;;;1.50;1.10;;;9.30;98.20;;;;;;4985597;28;20510;-76
2023/04/12 02:10:07;;;;;;;1.50;1.10;;;9.30;98.20;;;;;;4991288;28;20458;-76
2023/04/12 02:12:34;;;;;;;1.50;1.10;;;9.20;98.20;;;;;;4981053;28;20488;-76
2023/04/12 02:15:00;;;;;;;1.50;1.20;;;9.20;98.20;;;;;;4984556;28;21125;-76
2023/04/12 02:17:29;;;;;;;1.50;1.00;;;9.20;98.20;;;;;;4986327;28;20495;-76
2023/04/12 02:19:56;;;;;;;1.50;1.10;;;9.20;98.20;;;;;;4991093;28;20465;-76
2023/04/12 02:22:23;;;;;;;1.50;1.20;;;9.20;98.20;;;;;;4987221;28;20484;-76
2023/04/12 02:24:50;;;;;;;1.50;1.20;;;9.20;98.20;;;;;;4991721;28;21036;-76
2023/04/12 02:27:17;;;;;;;1.50;1.10;;;9.20;98.20;;;;;;4979377;28;20473;-76
2023/04/12 02:29:44;;;;;;;1.50;1.20;;;9.20;98.20;;;;;;4981614;28;20959;-76
2023/04/12 02:32:11;;;;;;;1.50;1.10;;;9.20;98.20;;;;;;4979598;28;21198;-76
2023/04/12 02:34:40;;;;;;;1.50;1.20;;;9.20;98.20;;;;;;4995377;28;20997;-76
2023/04/12 02:37:07;;;;;;;1.50;1.10;;;9.20;98.20;;;;;;4975148;28;20535;-76
2023/04/12 02:39:35;;;;;;;1.50;1.20;;;9.20;98.20;;;;;;4993747;28;20545;-76
2023/04/12 02:42:02;;;;;;;1.50;1.13;;;9.10;98.20;;;;;;4977723;28;20543;-76
2023/04/12 02:44:29;;;;;;;1.50;1.30;;;9.10;98.20;;;;;;4982354;28;20496;-76
2023/04/12 02:46:56;;;;;;;1.50;1.10;;;9.10;98.20;;;;;;4986521;28;20485;-76
2023/04/12 02:49:24;;;;;;;1.50;1.10;;;9.10;98.20;;;;;;4995166;28;20465;-76
2023/04/12 02:51:52;;;;;;;1.50;1.33;;;9.10;98.20;;;;;;4977326;28;20545;-76
2023/04/12 02:54:19;;;;;;;1.47;1.10;;;9.10;98.20;;;;;;4979960;28;20487;-75
2023/04/12 02:56:46;;;;;;;1.50;1.20;;;9.10;98.20;;;;;;4977851;28;20486;-76
2023/04/12 02:59:14;;;;;;;1.50;1.23;;;9.00;98.20;;;;;;4994130;28;20465;-76
2023/04/12 03:01:45;;;;;;;1.50;1.23;;;9.00;98.20;;;;;;4967650;28;20648;-76
2023/04/12 03:04:12;;;;;;;1.50;1.20;;;9.00;98.20;;;;;;4980712;28;20487;-75
2023/04/12 03:06:51;;;;;;;1.50;1.20;;;9.00;98.20;;;;;;4977210;28;20864;-76
2023/04/12 03:09:19;;;;;;;1.50;1.10;;;9.00;98.20;;;;;;4984570;28;20466;-76
2023/04/12 03:11:47;;;;;;;1.50;1.20;;;9.00;98.20;;;;;;4981939;28;20477;-76
2023/04/12 03:14:14;;;;;;;1.50;1.10;;;9.00;98.20;;;;;;4983967;28;20521;-75
2023/04/12 03:16:42;;;;;;;1.50;1.10;;;9.00;98.20;;;;;;4969651;28;20478;-75
2023/04/12 03:19:09;;;;;;;1.50;1.20;;;9.00;98.20;;;;;;4977665;28;20474;-76
2023/04/12 03:21:36;;;;;;;1.50;1.10;;;9.00;98.20;;;;;;4974656;28;20572;-75
2023/04/12 03:24:06;;;;;;;1.50;1.30;;;9.00;98.20;;;;;;4997361;28;20473;-76
2023/04/12 03:26:35;;;;;;;1.50;1.10;;;9.00;98.20;;;;;;4976016;28;20577;-76
2023/04/12 03:29:04;;;;;;;1.50;1.10;;;9.00;98.20;;;;;;4983770;28;20470;-77
2023/04/12 03:31:32;;;;;;;1.50;1.20;;;9.00;98.20;;;;;;4974522;28;20485;-76
2023/04/12 03:33:58;;;;;;;1.50;1.20;;;9.00;98.20;;;;;;4985429;28;20563;-75
2023/04/12 03:36:28;;;;;;;1.50;1.20;;;8.90;98.20;;;;;;4977566;28;20556;-76
2023/04/12 03:38:55;;;;;;;1.50;1.20;;;8.90;98.20;;;;;;4990645;28;20465;-75
2023/04/12 03:41:23;;;;;;;1.50;1.20;;;8.80;98.20;;;;;;4981586;28;20645;-75
2023/04/12 03:43:52;;;;;;;1.50;1.30;;;8.80;98.20;;;;;;4978776;28;20545;-75
2023/04/12 03:46:19;;;;;;;1.50;1.17;;;8.80;98.20;;;;;;4971015;28;20862;-76
2023/04/12 03:48:46;;;;;;;1.50;1.20;;;8.80;98.20;;;;;;4989082;28;20464;-75
2023/04/12 03:51:14;;;;;;;1.50;1.20;;;8.80;98.20;;;;;;4971638;28;20487;-75
2023/04/12 03:53:41;;;;;;;1.50;1.20;;;8.70;98.20;;;;;;4982212;28;20516;-75
2023/04/12 03:56:09;;;;;;;1.50;1.17;;;8.70;98.20;;;;;;4977544;28;20486;-75
2023/04/12 03:58:36;;;;;;;1.50;1.20;;;8.70;98.20;;;;;;4982446;28;20466;-75
2023/04/12 04:01:05;;;;;;;1.50;1.10;;;8.70;98.20;;;;;;4976556;28;20556;-75
2023/04/12 04:03:33;;;;;;;1.50;1.10;;;8.70;98.20;;;;;;4992895;28;20488;-75
2023/04/12 04:06:01;;;;;;;1.50;1.10;;;8.70;98.20;;;;;;4966860;28;20501;-76
2023/04/12 04:08:29;;;;;;;1.80;1.63;;;8.70;98.20;;;;;;4988415;28;20839;-75
2023/04/12 04:10:57;;;;;;;1.50;1.20;;;8.70;98.20;;;;;;4976687;28;20472;-75
2023/04/12 04:13:24;;;;;;;1.50;1.20;;;8.70;98.20;;;;;;4974966;28;21039;-75
2023/04/12 04:15:58;;;;;;;1.50;1.10;;;8.80;98.20;;;;;;4980127;28;20854;-75
2023/04/12 04:18:27;;;;;;;1.50;1.17;;;8.80;98.20;;;;;;4983689;28;20464;-75
2023/04/12 04:20:54;;;;;;;1.50;1.10;;;8.80;98.20;;;;;;4978425;28;20461;-76
2023/04/12 04:23:43;;;;;;;1.50;1.30;;;8.80;98.20;;;;;;4996884;28;20549;-76
2023/04/12 04:26:12;;;;;;;1.50;1.10;;;8.80;98.20;;;;;;4978888;28;20516;-77
2023/04/12 04:28:43;;;;;;;1.50;1.20;;;8.80;98.20;;;;;;4988514;28;20465;-77
2023/04/12 04:31:12;;;;;;;1.57;1.30;;;8.80;98.20;;;;;;4977625;28;20931;-77
2023/04/12 04:33:40;;;;;;;1.50;1.20;;;8.80;98.20;;;;;;4971079;28;20516;-75
2023/04/12 04:36:08;;;;;;;1.50;1.20;;;8.70;98.20;;;;;;4978318;28;20563;-75
2023/04/12 04:38:44;;;;;;;1.50;1.20;;;8.70;98.20;;;;;;4983402;28;20575;-76
2023/04/12 04:41:12;;;;;;;1.50;1.30;;;8.70;98.20;;;;;;4980378;28;20461;-76
2023/04/12 04:43:45;;;;;;;1.50;1.13;;;8.70;98.20;;;;;;4981064;28;20442;-75
2023/04/12 04:46:12;;;;;;;1.57;1.30;;;8.70;98.20;;;;;;4976025;28;20488;-74
2023/04/12 04:48:41;;;;;;;1.50;1.10;;;8.70;98.20;;;;;;4983091;28;20472;-74
2023/04/12 04:51:22;;;;;;;1.50;1.20;;;8.70;98.20;;;;;;4973589;28;20716;-75
2023/04/12 04:53:49;;;;;;;1.60;1.50;;;8.60;98.20;;;;;;4973499;28;21019;-77
2023/04/12 04:56:16;;;;;;;1.50;1.20;;;8.60;98.20;;;;;;4975469;28;20497;-76
2023/04/12 04:58:42;;;;;;;1.50;1.20;;;8.60;98.20;;;;;;4987293;28;20556;-75
2023/04/12 05:01:12;;;;;;;1.50;1.20;;;8.60;98.20;;;;;;4973224;28;20481;-76
2023/04/12 05:03:45;;;;;;;1.50;1.27;;;8.60;98.20;;;;;;4971714;28;20625;-77
2023/04/12 05:06:12;;;;;;;1.57;1.20;;;8.60;98.20;;;;;;4981963;28;21220;-77
2023/04/12 05:08:39;;;;;;;1.53;1.30;;;8.60;98.20;;;;;;4994240;28;20527;-74
2023/04/12 05:11:06;;;;;;;1.53;1.20;;;8.60;98.20;;;;;;4975011;28;20473;-75
2023/04/12 05:13:33;;;;;;;1.50;1.10;;;8.60;98.20;;;;;;4975874;28;20496;-75
2023/04/12 05:16:00;;;;;;;1.50;1.10;;;8.60;98.20;;;;;;4978304;28;21179;-76
2023/04/12 05:18:27;;;;;;;1.50;1.20;;;8.60;98.20;;;;;;4994144;28;20512;-75
2023/04/12 05:21:01;;;;;;;1.50;1.20;;;8.60;98.20;;;;;;4976109;28;20465;-76
2023/04/12 05:24:17;;;;;;;1.50;1.30;;;8.60;98.20;;;;;;4986933;28;20579;-77
2023/04/12 05:26:44;;;;;;;1.50;1.10;;;8.60;98.20;;;;;;4970579;28;20580;-76
2023/04/12 05:29:17;;;;;;;1.50;1.10;;;8.60;98.20;;;;;;4994336;28;21208;-77
2023/04/12 05:31:44;;;;;;;1.60;1.20;;;8.60;98.20;;;;;;4986774;28;20472;-76
2023/04/12 05:34:19;;;;;;;1.77;1.53;;;8.60;98.20;;;;;;4994041;28;20485;-77
2023/04/12 05:36:48;;;;;;;1.53;1.20;;;8.60;98.20;;;;;;4989722;28;20494;-76
2023/04/12 05:39:14;;;;;;;1.50;1.20;;;8.60;98.20;;;;;;5001065;28;20457;-77
2023/04/12 05:41:41;;;;;;;1.53;1.20;;;8.60;98.20;;;;;;4983444;28;20564;-76
2023/04/12 05:44:08;;;;;;;1.50;1.10;;;8.60;98.20;;;;;;4993728;28;20461;-76
2023/04/12 05:46:35;;;;;;;1.50;1.20;;;8.60;98.20;;;;;;4984316;28;21082;-75
2023/04/12 05:49:01;;;;;;;1.53;1.20;;;8.60;98.20;;;;;;4998191;28;20498;-76
2023/04/12 05:51:28;;;;;;;1.50;1.10;;;8.60;98.20;;;;;;4985118;28;20575;-76
2023/04/12 05:53:56;;;;;;;1.50;1.20;;;8.70;98.20;;;;;;4991779;28;20485;-77
2023/04/12 05:56:27;;;;;;;1.57;1.20;;;8.70;98.20;;;;;;4985589;28;20478;-76
2023/04/12 05:58:59;;;;;;;1.50;1.10;;;8.70;98.20;;;;;;4990429;28;20504;-77
2023/04/12 06:01:53;;;;;;;1.50;1.10;;;8.70;98.20;;;;;;4975860;28;20485;-78
2023/04/12 06:07:31;;;;;;;1.60;1.20;;;8.70;98.20;;;;;;4724983;26;20475;-76
2023/04/12 06:10:16;;;;;;;1.50;1.20;;;8.80;98.20;;;;;;5009421;28;20498;-76
2023/04/12 06:16:07;;;;;;;1.50;1.10;;;8.80;98.20;;;;;;5001989;28;20488;-78
2023/04/12 06:18:34;;;;;;;1.53;1.10;;;8.70;98.20;;;;;;5046730;28;20461;-77
2023/04/12 06:21:01;;;;;;;1.80;1.60;;;8.70;98.20;;;;;;5032076;28;20467;-77
2023/04/12 06:23:28;;;;;;;1.57;1.20;;;8.70;98.20;;;;;;5036068;28;20546;-78
2023/04/12 06:26:18;;;;;;;1.53;1.20;;;8.70;98.20;;;;;;5031481;28;20561;-78
2023/04/12 06:28:45;;;;;;;1.50;1.10;;;8.80;98.20;;;;;;5052012;28;20517;-78
2023/04/12 06:31:14;;;;;;;1.50;1.10;;;8.80;98.20;;;;;;5021952;28;20592;-76
2023/04/12 06:33:46;;;;;;;1.50;1.17;;;8.70;98.20;;;;;;5041328;28;20498;-77
2023/04/12 06:36:25;;;;;;;1.50;1.20;;;8.80;98.20;;;;;;5022507;28;20490;-77
2023/04/12 06:38:52;;;;;;;1.50;1.10;;;8.80;98.20;;;;;;5034300;28;20466;-76
2023/04/12 06:41:22;;;;;;;1.50;1.23;;;8.70;98.20;;;;;;5029392;28;20477;-78
2023/04/12 06:43:49;;;;;;;1.50;1.10;;;8.80;98.20;;;;;;5037970;28;20469;-77
2023/04/12 06:46:17;;;;;;;1.50;1.10;;;8.80;98.20;;;;;;5021219;28;20478;-76
2023/04/12 06:48:44;;;;;;;1.53;1.20;;;8.80;98.20;;;;;;5029418;28;20963;-77
2023/04/12 06:51:13;;;;;;;1.50;1.10;;;8.80;98.20;;;;;;5008460;28;21763;-76
2023/04/12 06:53:41;;;;;;;1.60;1.30;;;8.80;98.20;;;;;;5028890;28;20501;-77
2023/04/12 06:56:10;;;;;;;1.60;1.20;;;8.80;98.20;;;;;;5019763;28;20482;-76
2023/04/12 06:58:40;;;;;;;1.60;1.30;;;8.80;98.20;;;;;;5031776;28;20928;-76
2023/04/12 07:01:08;;;;;;;1.57;1.30;;;8.90;98.20;;;;;;5023578;28;21112;-76
2023/04/12 07:03:38;;;;;;;2.90;2.70;;;8.90;98.20;;;;;;5047146;28;20486;-76
2023/04/12 07:06:06;;;;;;;1.50;1.10;;;8.90;98.20;;;;;;5016027;28;21034;-76
2023/04/12 07:08:39;;;;;;;1.50;1.20;;;9.00;98.20;;;;;;5034553;28;20942;-76
2023/04/12 07:11:11;;;;;;;1.53;1.20;;;9.00;98.20;;;;;;5016364;28;20470;-77
2023/04/12 07:13:44;;;;;;;1.53;1.20;;;9.00;98.20;;;;;;5026013;28;20494;-77
2023/04/12 07:16:14;;;;;;;1.53;1.17;;;9.00;98.20;;;;;;5011603;28;20494;-77
2023/04/12 07:18:46;;;;;;;1.53;1.20;;;9.10;98.20;;;;;;5033996;28;20472;-77
2023/04/12 07:21:19;;;;;;;1.53;1.20;;;9.10;98.20;;;;;;5023214;28;20477;-77
2023/04/12 07:23:54;;;;;;;1.57;1.20;;;9.10;98.20;;;;;;5033566;28;20458;-78
2023/04/12 07:26:24;;;;;;;1.50;1.10;;;9.10;98.20;;;;;;5022656;28;20479;-77
2023/04/12 07:28:55;;;;;;;1.50;1.10;;;9.10;98.20;;;;;;5039033;28;20463;-77
2023/04/12 07:31:24;;;;;;;1.50;1.10;;;9.10;98.20;;;;;;5033869;28;20491;-77
2023/04/12 07:33:54;;;;;;;1.53;1.10;;;9.10;98.20;;;;;;5034402;28;20487;-77
2023/04/12 07:36:22;;;;;;;1.53;1.20;;;9.10;98.20;;;;;;5016587;28;20471;-77
2023/04/12 07:38:53;;;;;;;1.50;1.10;;;9.20;98.20;;;;;;5033426;28;21233;-77
2023/04/12 07:41:22;;;;;;;1.50;1.10;;;9.30;98.20;;;;;;5025843;28;20467;-78
2023/04/12 07:43:50;;;;;;;1.50;1.10;;;9.30;98.20;;;;;;5039246;28;20450;-79
2023/04/12 07:46:25;;;;;;;1.50;1.10;;;9.30;98.20;;;;;;5018507;28;20843;-78
2023/04/12 07:48:53;;;;;;;1.53;1.10;;;9.30;98.20;;;;;;5029922;28;20528;-77
2023/04/12 07:51:20;;;;;;;1.60;1.30;;;9.40;98.20;;;;;;5018972;28;20913;-77
2023/04/12 07:53:48;;;;;;;1.53;1.10;;;9.40;98.20;;;;;;5031050;28;20562;-77
2023/04/12 07:56:16;;;;;;;1.57;1.20;;;9.30;98.20;;;;;;5029878;28;20477;-78
2023/04/12 07:58:43;;;;;;;1.50;1.10;;;9.40;98.20;;;;;;5028326;28;20464;-78
2023/04/12 08:01:14;;;;;;;1.50;1.10;;;9.40;98.20;;;;;;5023361;28;20474;-78
2023/04/12 08:03:43;;;;;;;1.50;1.10;;;9.40;98.20;;;;;;5041381;28;20456;-78
2023/04/12 08:06:10;;;;;;;1.50;1.10;;;9.40;98.20;;;;;;5020491;28;20506;-77
2023/04/12 08:08:37;;;;;;;1.50;1.10;;;9.40;98.20;;;;;;5041503;28;20494;-78
2023/04/12 08:11:10;;;;;;;1.57;1.20;;;9.50;98.20;;;;;;5022372;28;20463;-75
2023/04/12 08:13:40;;;;;;;1.50;1.10;;;9.50;98.20;;;;;;5036726;28;20467;-76
2023/04/12 08:16:08;;;;;;;1.50;1.10;;;9.60;98.20;;;;;;5027451;28;20481;-76
2023/04/12 08:18:42;;;;;;;1.50;1.20;;;9.70;98.20;;;;;;5039380;28;20471;-76
2023/04/12 08:21:13;;;;;;;1.50;1.10;;;9.70;98.20;;;;;;5016504;28;20469;-76
2023/04/12 08:23:41;;;;;;;1.60;1.20;;;9.80;98.20;;;;;;5033657;28;20499;-76
2023/04/12 08:26:10;;;;;;;1.53;1.10;;;9.90;98.20;;;;;;5015507;28;20478;-75
2023/04/12 08:28:38;;;;;;;1.50;1.10;;;10.00;98.20;;;;;;5037677;28;20818;-76
2023/04/12 08:31:06;;;;;;;1.60;1.20;;;10.00;98.20;;;;;;5016739;28;20480;-76
2023/04/12 08:33:33;;;;;;;1.50;1.10;;;10.10;98.20;;;;;;5040445;28;20486;-75
2023/04/12 08:36:01;;;;;;;1.50;1.10;;;10.20;98.20;;;;;;5009922;28;21080;-75
2023/04/12 08:38:29;;;;;;;1.60;1.20;;;10.20;98.20;;;;;;5035083;28;20464;-75
2023/04/12 08:40:58;;;;;;;1.57;1.10;;;10.20;98.20;;;;;;5015087;28;20466;-76
2023/04/12 08:43:29;;;;;;;1.57;1.00;;;10.20;98.20;;;;;;5043014;28;20521;-75
2023/04/12 08:45:59;;;;;;;1.50;1.07;;;10.10;98.20;;;;;;5019363;28;21096;-75
2023/04/12 08:48:27;;;;;;;1.60;1.17;;;10.10;98.20;;;;;;5040950;28;20842;-76
2023/04/12 08:50:56;;;;;;;1.57;1.07;;;10.20;98.20;;;;;;5011081;28;20463;-76
2023/04/12 08:53:24;;;;;;;1.53;1.00;;;10.20;98.20;;;;;;5038148;28;20455;-76
2023/04/12 08:55:54;;;;;;;1.50;1.10;;;10.20;98.20;;;;;;5012562;28;20825;-76
2023/04/12 08:58:22;;;;;;;1.50;1.10;;;10.30;98.20;;;;;;5029646;28;20972;-76
2023/04/12 09:00:49;;;;;;;1.50;1.10;;;10.40;98.20;;;;;;5009433;28;20467;-76
2023/04/12 09:03:18;;;;;;;1.50;1.10;;;10.40;98.20;;;;;;5017501;28;20467;-77
2023/04/12 09:05:46;;;;;;;1.50;1.10;;;10.40;98.20;;;;;;5030278;28;20502;-76
2023/04/12 09:08:15;;;;;;;1.50;1.10;;;10.30;98.20;;;;;;5042356;28;20514;-77
2023/04/12 09:10:43;;;;;;;1.50;1.10;;;10.40;98.20;;;;;;5030368;28;20567;-77
2023/04/12 09:13:41;;;;;;;1.50;1.10;;;10.40;98.20;;;;;;5023940;28;20528;-78
2023/04/12 09:16:09;;;;;;;1.53;1.10;;;10.40;98.20;;;;;;5025106;28;20909;-77
2023/04/12 09:18:50;;;;;;;1.50;1.10;;;10.50;98.20;;;;;;5051197;28;20514;-78
2023/04/12 09:24:04;;;;;;;1.53;1.10;;;10.60;98.20;;;;;;5019511;28;20755;-77
2023/04/12 09:26:32;;;;;;;1.50;1.10;;;10.70;98.20;;;;;;5016003;28;20502;-76
2023/04/12 09:29:04;;;;;;;1.60;1.10;;;10.70;98.20;;;;;;5022531;28;20738;-77
2023/04/12 09:31:47;;;;;;;1.53;1.10;;;10.80;98.20;;;;;;5030355;28;20462;-79
2023/04/12 09:34:15;;;;;;;1.50;0.90;;;11.00;98.20;;;;;;5024619;28;20590;-78
2023/04/12 09:36:43;;;;;;;1.50;1.00;;;10.90;98.20;;;;;;5025651;28;20513;-78
2023/04/12 09:39:10;;;;;;;1.57;1.10;;;10.90;98.20;;;;;;5030297;28;20472;-78
2023/04/12 09:41:38;;;;;;;1.50;1.07;;;10.90;98.20;;;;;;5026551;28;20484;-78
2023/04/12 09:44:06;;;;;;;1.50;1.07;;;10.90;98.20;;;;;;5041746;28;20479;-77
2023/04/12 09:46:34;;;;;;;1.50;1.10;;;10.80;98.20;;;;;;5030489;28;20485;-77
2023/04/12 09:49:04;;;;;;;1.53;1.10;;;10.80;98.20;;;;;;5035598;28;20547;-78
2023/04/12 09:51:35;;;;;;;1.57;1.10;;;10.90;98.20;;;;;;5021616;28;20484;-78
2023/04/12 09:54:07;;;;;;;1.50;1.00;;;10.80;98.20;;;;;;5027592;28;21243;-77
2023/04/12 09:57:20;;;;;;;;;;;;;;;;;;;;;
2023/04/12 09:59:51;;;;;;;1.50;1.00;;;11.00;98.20;;;;;;5028930;28;20522;-78
2023/04/12 10:02:19;;;;;;;1.60;1.20;;;11.00;98.20;;;;;;5020524;28;20578;-76
2023/04/12 10:04:49;;;;;;;1.53;1.10;;;11.00;98.20;;;;;;5022385;28;20491;-77
2023/04/12 10:07:16;;;;;;;1.53;1.10;;;11.10;98.20;;;;;;5023937;28;20470;-76
2023/04/12 10:09:44;;;;;;;1.50;1.10;;;11.20;98.20;;;;;;5028741;28;20474;-76
2023/04/12 10:12:15;;;;;;;1.50;1.10;;;11.30;98.20;;;;;;5023178;28;21036;-75
2023/04/12 10:14:43;;;;;;;1.50;1.00;;;11.50;98.20;;;;;;5029727;28;21010;-75
2023/04/12 10:17:14;;;;;;;1.50;1.13;;;11.50;98.20;;;;;;5021261;28;20490;-77
2023/04/12 10:19:41;;;;;;;1.50;1.10;;;11.50;98.20;;;;;;5030087;28;20490;-77
2023/04/12 10:22:08;;;;;;;1.50;1.10;;;11.60;98.20;;;;;;5023692;28;20509;-77
2023/04/12 10:24:36;;;;;;;1.50;1.07;;;11.60;98.20;;;;;;5026277;28;20485;-76
2023/04/12 10:27:28;;;;;;;1.57;1.10;;;11.60;98.20;;;;;;5023888;28;20485;-78
2023/04/12 10:30:25;;;;;;;1.57;1.10;;;11.70;98.20;;;;;;5036926;28;20556;-79
2023/04/12 10:33:29;;;;;;;1.60;1.17;;;11.70;98.20;;;;;;5035561;28;20621;-79
2023/04/12 10:35:59;;;;;;;1.50;1.00;;;11.70;98.20;;;;;;5042641;23;20483;-89
2023/04/12 10:38:31;;;;;;;1.50;1.00;;;11.70;98.20;;;;;;5026996;28;20574;-90
2023/04/12 10:41:12;;;;;;;1.50;1.10;;;11.70;98.20;;;;;;5014744;28;20822;-90
2023/04/12 10:43:39;;;;;;;1.97;1.77;;;11.70;98.20;;;;;;5013181;28;20464;-90
2023/04/12 10:46:07;;;;;;;1.50;1.00;;;11.70;98.20;;;;;;5002707;28;20852;-89
2023/04/12 10:48:36;;;;;;;1.50;1.00;;;11.80;98.20;;;;;;5037694;28;20488;-90
2023/04/12 10:51:13;;;;;;;1.50;1.00;;;11.90;98.20;;;;;;4999064;28;20464;-90
2023/04/12 10:53:41;;;;;;;1.50;1.00;;;12.00;98.20;;;;;;5020807;28;20522;-89
2023/04/12 10:56:35;;;;;;;1.50;1.00;;;12.10;98.20;;;;;;5016246;28;20483;-90
2023/04/12 10:59:02;;;;;;;1.50;1.00;;;12.10;98.20;;;;;;5018146;28;20490;-90
2023/04/12 11:01:30;;;;;;;1.50;1.00;;;12.10;98.20;;;;;;5019243;28;20937;-90
2023/04/12 11:04:11;;;;;;;1.50;1.10;;;12.20;98.20;;;;;;5029965;28;20464;-89
2023/04/12 11:06:56;;;;;;;1.57;1.10;;;12.30;98.20;;;;;;5007971;28;20754;-89
2023/04/12 11:09:25;;;;;;;1.53;1.10;;;12.50;98.20;;;;;;5018683;28;20488;-91
2023/04/12 11:11:58;;;;;;;1.50;1.00;;;12.70;98.20;;;;;;5014938;28;20493;-89
2023/04/12 11:14:29;;;;;;;1.50;1.00;;;12.90;98.20;;;;;;5023843;28;20733;-90
2023/04/12 11:17:23;;;;;;;1.53;1.00;;;13.10;98.20;;;;;;5007665;28;20925;-90
2023/04/12 11:19:57;;;;;;;1.50;1.00;;;13.30;98.20;;;;;;5015926;28;20548;-89
2023/04/12 11:22:26;;;;;;;1.50;1.00;;;13.30;98.20;;;;;;5004838;28;20555;-90
2023/04/12 11:24:54;;;;;;;1.50;1.00;;;13.40;98.20;;;;;;5017825;28;20487;-90
2023/04/12 11:27:22;;;;;;;1.50;1.00;;;13.30;98.20;;;;;;5012303;28;20479;-90
2023/04/12 11:29:51;;;;;;;1.50;1.00;;;13.40;98.20;;;;;;5019624;28;20468;-89
2023/04/12 11:32:18;;;;;;;1.50;0.90;;;13.50;98.20;;;;;;5023277;28;20493;-90
2023/04/12 11:34:47;;;;;;;1.50;1.00;;;13.60;98.20;;;;;;5025349;28;20769;-90
2023/04/12 11:37:18;;;;;;;1.50;1.00;;;13.80;98.20;;;;;;5007083;28;20523;-90
2023/04/12 11:39:46;;;;;;;1.50;1.00;;;14.20;98.20;;;;;;5026324;28;20490;-89
2023/04/12 11:42:15;;;;;;;1.53;0.90;;;14.60;98.20;;;;;;5009334;28;20702;-90
2023/04/12 11:44:43;;;;;;;1.50;1.00;;;14.80;98.20;;;;;;5016528;28;20465;-89
2023/04/12 11:47:15;;;;;;;1.70;1.20;;;15.00;98.20;;;;;;5018300;28;20770;-89
2023/04/12 11:49:46;;;;;;;1.50;1.00;;;15.20;98.20;;;;;;5021135;28;20484;-90
2023/04/12 11:52:14;;;;;;;1.50;0.90;;;15.50;98.20;;;;;;5007549;28;20479;-89
2023/04/12 11:54:46;;;;;;;1.53;1.00;;;15.60;98.20;;;;;;5015261;28;20471;-89
2023/04/12 11:57:15;;;;;;;1.50;1.00;;;15.80;98.20;;;;;;5007079;28;20484;-89
2023/04/12 11:59:44;;;;;;;1.50;1.00;;;16.00;98.20;;;;;;5020981;28;20472;-89
2023/04/12 12:02:12;;;;;;;1.50;0.90;;;16.20;98.20;;;;;;5022539;28;20484;-89
2023/04/12 12:04:41;;;;;;;1.50;0.90;;;16.20;98.20;;;;;;5024960;28;20547;-88
2023/04/12 12:07:08;;;;;;;1.50;0.90;;;16.30;98.20;;;;;;5023948;28;20474;-89
2023/04/12 12:09:36;;;;;;;1.50;0.90;;;16.30;98.20;;;;;;5024607;28;20529;-88
2023/04/12 12:12:06;;;;;;;1.53;1.00;;;16.20;98.20;;;;;;5020564;28;21303;-88
2023/04/12 12:14:36;;;;;;;1.50;1.00;;;16.20;98.20;;;;;;5025492;28;20468;-89
2023/04/12 12:17:09;;;;;;;1.50;0.90;;;16.10;98.20;;;;;;5018386;28;21017;-88
2023/04/12 12:19:38;;;;;;;1.50;0.90;;;16.10;98.20;;;;;;5019870;28;20490;-87
2023/04/12 12:22:07;;;;;;;1.70;1.40;;;16.10;98.20;;;;;;5010089;28;20492;-89
2023/04/12 12:24:35;;;;;;;1.50;0.90;;;16.10;98.20;;;;;;5028151;28;20436;-89
2023/04/12 12:27:02;;;;;;;1.50;0.90;;;16.10;98.20;;;;;;5031683;28;20502;-89
2023/04/12 12:29:39;;;;;;;1.50;0.90;;;16.20;98.20;;;;;;5021763;28;20506;-88
2023/04/12 12:32:13;;;;;;;1.50;0.90;;;16.20;98.20;;;;;;5020615;28;20505;-88
2023/04/12 12:34:42;;;;;;;1.50;1.00;;;16.20;97.80;;;;;;5028424;28;20475;-88
2023/04/12 12:37:13;;;;;;;1.50;0.90;;;16.20;97.80;;;;;;5019198;28;20485;-89
2023/04/12 12:39:59;;;;;;;1.50;0.90;;;16.20;97.80;;;;;;5022022;28;21001;-89
2023/04/12 12:42:26;;;;;;;1.50;0.90;;;16.30;98.20;;;;;;5004607;28;20487;-88
2023/04/12 12:44:54;;;;;;;1.50;0.90;;;16.20;95.70;;;;;;5009578;28;20467;-88
2023/04/12 12:47:20;;;;;;;1.50;1.00;;;16.10;96.90;;;;;;5007514;28;20480;-89
2023/04/12 12:49:47;;;;;;;1.50;0.90;;;16.10;97.00;;;;;;5013817;28;20474;-89
2023/04/12 12:52:14;;;;;;;1.50;1.00;;;16.10;97.00;;;;;;5007247;28;20483;-88
2023/04/12 12:54:41;;;;;;;1.50;0.90;;;16.10;97.70;;;;;;5012913;28;20472;-89
2023/04/12 12:57:07;;;;;;;1.50;0.90;;;16.10;98.10;;;;;;5008845;28;20488;-89
2023/04/12 12:59:34;;;;;;;1.47;0.90;;;16.10;96.40;;;;;;5011514;28;21054;-88
2023/04/12 13:02:02;;;;;;;1.50;0.90;;;16.10;97.30;;;;;;5006201;28;20483;-88
2023/04/12 13:04:29;;;;;;;1.50;1.00;;;16.20;98.20;;;;;;5016571;28;20569;-89
2023/04/12 13:06:56;;;;;;;1.50;0.90;;;16.50;98.20;;;;;;5018489;28;20891;-88
2023/04/12 13:09:23;;;;;;;1.50;1.00;;;16.90;97.40;;;;;;5020106;28;21041;-89
2023/04/12 13:11:49;;;;;;;1.50;0.90;;;17.20;95.10;;;;;;5002763;28;20538;-88
2023/04/12 13:14:16;;;;;;;1.50;0.90;;;17.60;91.80;;;;;;5016662;28;20460;-88
2023/04/12 13:16:44;;;;;;;1.50;0.90;;;17.80;91.90;;;;;;5012852;28;20941;-85